createdAt,value
2017-09-19T00:00:29.174Z,6.91
2017-09-19T00:01:35.134Z,6.86
2017-09-19T00:02:41.286Z,6.79
2017-09-19T00:03:48.383Z,6.82
2017-09-19T00:04:55.636Z,6.84
2017-09-19T00:06:01.774Z,6.84
2017-09-19T00:07:08.587Z,6.80
2017-09-19T00:08:14.787Z,6.82
2017-09-19T00:09:21.081Z,6.84
2017-09-19T00:10:27.940Z,6.79
2017-09-19T00:11:34.382Z,6.73
2017-09-19T00:12:41.356Z,6.73
2017-09-19T00:13:48.389Z,6.67
2017-09-19T00:14:54.820Z,6.65
2017-09-19T00:16:01.087Z,6.69
2017-09-19T00:17:07.216Z,6.71
2017-09-19T00:18:13.464Z,6.67
2017-09-19T00:19:19.734Z,6.71
2017-09-19T00:20:26.472Z,6.74
2017-09-19T00:21:32.809Z,6.73
2017-09-19T00:22:38.941Z,6.78
2017-09-19T00:23:45.653Z,6.75
2017-09-19T00:24:51.997Z,6.74
2017-09-19T00:25:58.346Z,6.78
2017-09-19T00:27:04.731Z,6.81
2017-09-19T00:28:12.498Z,6.74
2017-09-19T00:29:18.793Z,6.69
2017-09-19T00:30:25.025Z,6.65
2017-09-19T00:31:31.412Z,6.69
2017-09-19T00:32:37.649Z,6.78
2017-09-19T00:33:43.774Z,6.74
2017-09-19T00:34:49.907Z,6.79
2017-09-19T00:35:56.276Z,6.83
2017-09-19T00:37:02.576Z,6.89
2017-09-19T00:38:09.205Z,6.86
2017-09-19T00:39:15.372Z,7.04
2017-09-19T00:40:21.563Z,7.00
2017-09-19T00:41:28.432Z,6.94
2017-09-19T00:42:34.596Z,6.85
2017-09-19T00:43:40.688Z,6.85
2017-09-19T00:44:48.618Z,6.81
2017-09-19T00:45:54.863Z,6.74
2017-09-19T00:47:01.017Z,6.80
2017-09-19T00:48:07.183Z,6.77
2017-09-19T00:49:13.180Z,6.79
2017-09-19T00:50:20.070Z,6.78
2017-09-19T00:51:26.193Z,6.73
2017-09-19T00:52:32.175Z,6.86
2017-09-19T00:53:38.299Z,6.94
2017-09-19T00:54:44.383Z,6.93
2017-09-19T00:55:49.866Z,6.97
2017-09-19T00:56:55.162Z,6.96
2017-09-19T00:58:00.593Z,6.94
2017-09-19T00:59:05.857Z,7.02
2017-09-19T01:00:11.519Z,6.97
2017-09-19T01:01:17.460Z,6.85
2017-09-19T01:02:23.837Z,6.97
2017-09-19T01:03:30.807Z,6.88
2017-09-19T01:04:36.557Z,6.79
2017-09-19T01:05:42.349Z,6.76
2017-09-19T01:06:48.737Z,6.69
2017-09-19T01:07:54.899Z,6.61
2017-09-19T01:09:01.088Z,6.54
2017-09-19T01:10:07.705Z,6.51
2017-09-19T01:11:13.799Z,6.48
2017-09-19T01:12:20.062Z,6.48
2017-09-19T01:13:26.930Z,6.53
2017-09-19T01:14:33.083Z,6.49
2017-09-19T01:15:39.255Z,6.48
2017-09-19T01:16:45.619Z,6.47
2017-09-19T01:17:51.679Z,6.52
2017-09-19T01:18:58.749Z,6.60
2017-09-19T01:20:04.656Z,6.70
2017-09-19T01:21:10.577Z,6.74
2017-09-19T01:22:16.710Z,6.75
2017-09-19T01:23:22.204Z,6.71
2017-09-19T01:24:28.315Z,6.62
2017-09-19T01:25:34.178Z,6.57
2017-09-19T01:26:40.330Z,6.50
2017-09-19T01:27:46.680Z,6.45
2017-09-19T01:28:52.377Z,6.43
2017-09-19T01:29:57.614Z,6.52
2017-09-19T01:31:03.366Z,6.49
2017-09-19T01:32:08.642Z,6.49
2017-09-19T01:33:14.820Z,6.60
2017-09-19T01:34:20.996Z,6.72
2017-09-19T01:35:27.067Z,6.72
2017-09-19T01:36:33.171Z,6.65
2017-09-19T01:37:39.539Z,6.59
2017-09-19T01:38:45.695Z,6.54
2017-09-19T01:39:52.590Z,6.53
2017-09-19T01:40:58.626Z,6.48
2017-09-19T01:42:04.810Z,6.47
2017-09-19T01:43:11.045Z,6.58
2017-09-19T01:44:17.458Z,6.44
2017-09-19T01:45:24.340Z,6.34
2017-09-19T01:46:31.202Z,6.37
2017-09-19T01:47:38.639Z,6.34
2017-09-19T01:48:44.749Z,6.50
2017-09-19T01:49:50.927Z,6.40
2017-09-19T01:50:57.103Z,6.45
2017-09-19T01:52:04.071Z,6.61
2017-09-19T01:53:10.246Z,6.53
2017-09-19T01:54:16.341Z,6.51
2017-09-19T01:55:22.579Z,6.49
2017-09-19T01:56:28.732Z,6.40
2017-09-19T01:57:34.530Z,6.39
2017-09-19T01:58:40.721Z,6.32
2017-09-19T01:59:46.899Z,6.38
2017-09-19T02:00:52.966Z,6.39
2017-09-19T02:01:59.091Z,6.28
2017-09-19T02:03:05.227Z,6.32
2017-09-19T02:04:11.354Z,6.33
2017-09-19T02:05:17.305Z,6.30
2017-09-19T02:06:23.449Z,6.32
2017-09-19T02:07:29.567Z,6.27
2017-09-19T02:08:36.206Z,6.36
2017-09-19T02:09:42.535Z,6.33
2017-09-19T02:10:48.738Z,6.24
2017-09-19T02:11:54.858Z,6.25
2017-09-19T02:13:00.918Z,6.26
2017-09-19T02:14:07.631Z,6.29
2017-09-19T02:15:14.290Z,6.42
2017-09-19T02:16:20.263Z,6.42
2017-09-19T02:17:26.425Z,6.41
2017-09-19T02:18:32.568Z,6.40
2017-09-19T02:19:38.616Z,6.43
2017-09-19T02:20:44.599Z,6.29
2017-09-19T02:21:50.634Z,6.27
2017-09-19T02:22:56.738Z,6.34
2017-09-19T02:24:02.879Z,6.30
2017-09-19T02:25:09.792Z,6.29
2017-09-19T02:26:16.086Z,6.29
2017-09-19T02:27:22.256Z,6.35
2017-09-19T02:28:28.422Z,6.36
2017-09-19T02:29:34.479Z,6.34
2017-09-19T02:30:40.532Z,6.32
2017-09-19T02:31:46.719Z,6.29
2017-09-19T02:32:52.849Z,6.28
2017-09-19T02:33:59.677Z,6.25
2017-09-19T02:35:05.894Z,6.25
2017-09-19T02:36:12.119Z,6.23
2017-09-19T02:37:18.079Z,6.23
2017-09-19T02:38:24.282Z,6.15
2017-09-19T02:39:31.076Z,6.11
2017-09-19T02:40:37.836Z,6.15
2017-09-19T02:41:44.008Z,6.17
2017-09-19T02:42:50.348Z,6.15
2017-09-19T02:43:56.433Z,6.08
2017-09-19T02:45:02.532Z,5.99
2017-09-19T02:46:08.802Z,5.92
2017-09-19T02:47:15.131Z,5.84
2017-09-19T02:48:21.311Z,5.80
2017-09-19T02:49:27.508Z,5.77
2017-09-19T02:50:33.594Z,5.75
2017-09-19T02:51:40.382Z,5.77
2017-09-19T02:52:46.538Z,5.75
2017-09-19T02:53:53.612Z,5.82
2017-09-19T02:55:01.578Z,5.79
2017-09-19T02:56:08.607Z,5.82
2017-09-19T02:57:14.887Z,6.00
2017-09-19T02:58:21.642Z,6.15
2017-09-19T02:59:27.736Z,6.07
2017-09-19T03:00:34.429Z,6.11
2017-09-19T03:01:42.489Z,6.04
2017-09-19T03:02:50.146Z,5.94
2017-09-19T03:03:58.360Z,5.85
2017-09-19T03:05:05.515Z,5.76
2017-09-19T03:06:12.455Z,5.66
2017-09-19T03:07:19.138Z,5.68
2017-09-19T03:08:25.366Z,5.67
2017-09-19T03:09:31.068Z,5.61
2017-09-19T03:10:38.879Z,5.61
2017-09-19T03:11:45.161Z,5.72
2017-09-19T03:12:53.534Z,5.65
2017-09-19T03:13:59.874Z,5.72
2017-09-19T03:15:08.789Z,5.68
2017-09-19T03:16:15.561Z,5.63
2017-09-19T03:17:21.698Z,5.59
2017-09-19T03:18:28.658Z,5.63
2017-09-19T03:19:34.932Z,5.69
2017-09-19T03:20:41.346Z,5.63
2017-09-19T03:21:47.770Z,5.76
2017-09-19T03:22:54.182Z,5.80
2017-09-19T03:24:00.066Z,5.75
2017-09-19T03:25:06.267Z,5.69
2017-09-19T03:26:12.521Z,5.76
2017-09-19T03:27:18.909Z,5.94
2017-09-19T03:28:25.598Z,5.98
2017-09-19T03:29:31.822Z,5.98
2017-09-19T03:30:38.266Z,5.93
2017-09-19T03:31:44.395Z,5.93
2017-09-19T03:32:50.451Z,5.89
2017-09-19T03:33:56.596Z,5.90
2017-09-19T03:35:02.659Z,5.82
2017-09-19T03:36:08.633Z,5.64
2017-09-19T03:37:14.948Z,5.59
2017-09-19T03:38:21.203Z,5.63
2017-09-19T03:39:27.378Z,5.68
2017-09-19T03:40:34.010Z,5.64
2017-09-19T03:41:41.020Z,5.55
2017-09-19T03:42:48.688Z,5.59
2017-09-19T03:43:55.119Z,5.49
2017-09-19T03:45:01.288Z,5.48
2017-09-19T03:46:08.097Z,5.62
2017-09-19T03:47:14.212Z,5.59
2017-09-19T03:48:20.472Z,5.54
2017-09-19T03:49:27.732Z,5.51
2017-09-19T03:50:33.790Z,5.51
2017-09-19T03:51:40.002Z,5.50
2017-09-19T03:52:46.215Z,5.47
2017-09-19T03:53:52.469Z,5.46
2017-09-19T03:54:58.671Z,5.39
2017-09-19T03:56:05.250Z,5.37
2017-09-19T03:57:11.463Z,5.32
2017-09-19T03:58:17.675Z,5.31
2017-09-19T03:59:23.863Z,5.31
2017-09-19T04:00:30.204Z,5.34
2017-09-19T04:01:36.626Z,5.36
2017-09-19T04:02:42.935Z,5.47
2017-09-19T04:03:49.148Z,5.48
2017-09-19T04:04:55.326Z,5.49
2017-09-19T04:06:01.508Z,5.49
2017-09-19T04:07:07.222Z,5.61
2017-09-19T04:08:13.239Z,5.71
2017-09-19T04:09:19.688Z,5.73
2017-09-19T04:10:25.850Z,5.74
2017-09-19T04:11:32.300Z,5.75
2017-09-19T04:12:38.644Z,5.65
2017-09-19T04:13:45.067Z,5.61
2017-09-19T04:14:51.422Z,5.58
2017-09-19T04:16:00.044Z,5.64
2017-09-19T04:17:07.743Z,5.66
2017-09-19T04:18:14.269Z,5.76
2017-09-19T04:19:21.183Z,5.86
2017-09-19T04:20:27.603Z,6.01
2017-09-19T04:21:33.803Z,6.12
2017-09-19T04:22:41.256Z,6.21
2017-09-19T04:23:49.315Z,6.19
2017-09-19T04:24:56.745Z,6.16
2017-09-19T04:26:03.196Z,6.09
2017-09-19T04:27:09.330Z,6.15
2017-09-19T04:28:15.314Z,6.18
2017-09-19T04:29:21.893Z,6.24
2017-09-19T04:30:28.203Z,6.23
2017-09-19T04:31:34.719Z,6.14
2017-09-19T04:32:42.854Z,6.15
2017-09-19T04:33:48.911Z,6.18
2017-09-19T04:34:55.213Z,6.21
2017-09-19T04:36:02.219Z,6.24
2017-09-19T04:37:08.222Z,6.27
2017-09-19T04:38:14.377Z,6.24
2017-09-19T04:39:20.508Z,6.27
2017-09-19T04:40:28.343Z,6.28
2017-09-19T04:41:37.562Z,6.28
2017-09-19T04:42:47.507Z,6.26
2017-09-19T04:43:58.483Z,6.33
2017-09-19T04:45:06.387Z,6.42
2017-09-19T04:46:14.731Z,6.44
2017-09-19T04:47:23.566Z,6.39
2017-09-19T04:48:33.432Z,6.45
2017-09-19T04:49:42.418Z,6.50
2017-09-19T04:50:51.193Z,6.39
2017-09-19T04:51:59.552Z,6.45
2017-09-19T04:53:07.365Z,6.50
2017-09-19T04:54:16.498Z,6.46
2017-09-19T04:55:24.502Z,6.48
2017-09-19T04:56:32.403Z,6.47
2017-09-19T04:57:40.362Z,6.49
2017-09-19T04:58:48.467Z,6.49
2017-09-19T04:59:57.140Z,6.49
2017-09-19T05:01:08.222Z,6.50
2017-09-19T05:02:16.547Z,6.51
2017-09-19T05:03:23.870Z,6.55
2017-09-19T05:04:31.395Z,6.80
2017-09-19T05:05:40.313Z,6.94
2017-09-19T05:06:48.864Z,7.04
2017-09-19T05:07:57.402Z,7.05
2017-09-19T05:09:04.896Z,7.13
2017-09-19T05:10:13.455Z,7.21
2017-09-19T05:11:24.590Z,7.14
2017-09-19T05:12:34.602Z,7.21
2017-09-19T05:13:44.463Z,7.18
2017-09-19T05:14:55.506Z,7.23
2017-09-19T05:16:04.491Z,7.31
2017-09-19T05:17:14.521Z,7.43
2017-09-19T05:18:25.464Z,7.55
2017-09-19T05:19:35.576Z,7.70
2017-09-19T05:20:46.694Z,7.79
2017-09-19T05:21:56.490Z,7.88
2017-09-19T05:23:07.436Z,7.90
2017-09-19T05:24:17.430Z,7.83
2017-09-19T05:25:26.474Z,7.75
2017-09-19T05:26:36.581Z,7.72
2017-09-19T05:27:46.498Z,7.73
2017-09-19T05:28:55.440Z,7.76
2017-09-19T05:30:05.628Z,7.79
2017-09-19T05:31:15.537Z,7.82
2017-09-19T05:32:25.540Z,7.81
2017-09-19T05:33:36.510Z,7.83
2017-09-19T05:34:46.470Z,7.91
2017-09-19T05:35:55.575Z,8.14
2017-09-19T05:37:06.459Z,8.18
2017-09-19T05:38:15.448Z,8.15
2017-09-19T05:39:26.718Z,8.28
2017-09-19T05:40:38.393Z,8.34
2017-09-19T05:41:48.444Z,8.37
2017-09-19T05:42:56.747Z,8.47
2017-09-19T05:44:05.562Z,8.49
2017-09-19T05:45:14.376Z,8.52
2017-09-19T05:46:23.480Z,8.58
2017-09-19T05:47:34.469Z,8.56
2017-09-19T05:48:43.272Z,8.60
2017-09-19T05:49:52.254Z,8.52
2017-09-19T05:51:01.398Z,8.61
2017-09-19T05:52:13.439Z,8.56
2017-09-19T05:53:24.303Z,8.55
2017-09-19T05:54:34.467Z,8.57
2017-09-19T05:55:45.421Z,8.63
2017-09-19T05:57:01.641Z,8.72
2017-09-19T05:58:23.857Z,8.89
2017-09-19T05:59:33.315Z,8.84
2017-09-19T06:00:43.356Z,8.83
2017-09-19T06:01:54.418Z,8.85
2017-09-19T06:03:04.457Z,8.87
2017-09-19T06:04:14.434Z,8.87
2017-09-19T06:05:25.393Z,8.95
2017-09-19T06:06:35.457Z,9.15
2017-09-19T06:07:45.482Z,9.12
2017-09-19T06:09:06.411Z,9.15
2017-09-19T06:10:16.410Z,9.02
2017-09-19T06:11:27.293Z,8.91
2017-09-19T06:12:38.404Z,8.97
2017-09-19T06:13:48.451Z,8.98
2017-09-19T06:14:59.367Z,9.05
2017-09-19T06:16:10.443Z,9.22
2017-09-19T06:17:20.319Z,9.34
2017-09-19T06:18:31.394Z,9.37
2017-09-19T06:19:41.337Z,9.36
2017-09-19T06:20:51.491Z,9.38
2017-09-19T06:22:02.306Z,9.50
2017-09-19T06:23:13.193Z,9.50
2017-09-19T06:24:22.314Z,9.56
2017-09-19T06:25:32.297Z,9.69
2017-09-19T06:26:42.483Z,9.75
2017-09-19T06:27:53.369Z,9.80
2017-09-19T06:29:04.273Z,9.75
2017-09-19T06:30:15.392Z,9.75
2017-09-19T06:31:26.420Z,9.84
2017-09-19T06:32:36.464Z,9.82
2017-09-19T06:33:47.531Z,9.84
2017-09-19T06:34:58.497Z,9.89
2017-09-19T06:36:09.350Z,10.16
2017-09-19T06:37:19.365Z,10.29
2017-09-19T06:38:29.343Z,10.22
2017-09-19T06:39:39.377Z,10.30
2017-09-19T06:40:49.478Z,10.38
2017-09-19T06:42:00.479Z,10.50
2017-09-19T06:43:09.330Z,10.84
2017-09-19T06:44:18.290Z,10.88
2017-09-19T06:45:28.350Z,10.89
2017-09-19T06:46:38.366Z,10.85
2017-09-19T06:47:47.392Z,10.76
2017-09-19T06:48:57.351Z,10.89
2017-09-19T06:50:08.396Z,10.87
2017-09-19T06:51:17.492Z,10.92
2017-09-19T06:52:27.450Z,10.90
2017-09-19T06:53:37.341Z,10.92
2017-09-19T06:54:47.383Z,11.00
2017-09-19T06:55:57.325Z,11.09
2017-09-19T06:57:07.366Z,11.20
2017-09-19T06:58:17.399Z,11.29
2017-09-19T06:59:29.305Z,11.31
2017-09-19T07:00:41.252Z,11.40
2017-09-19T07:01:52.338Z,11.37
2017-09-19T07:03:03.546Z,11.47
2017-09-19T07:04:14.250Z,11.51
2017-09-19T07:05:24.355Z,11.46
2017-09-19T07:06:34.307Z,11.44
2017-09-19T07:07:44.278Z,11.59
2017-09-19T07:08:55.247Z,11.57
2017-09-19T07:10:05.304Z,11.50
2017-09-19T07:11:17.374Z,11.55
2017-09-19T07:12:27.267Z,11.53
2017-09-19T07:13:39.381Z,11.59
2017-09-19T07:14:49.286Z,11.65
2017-09-19T07:15:59.414Z,11.59
2017-09-19T07:17:11.310Z,11.77
2017-09-19T07:18:22.236Z,11.80
2017-09-19T07:19:32.299Z,11.83
2017-09-19T07:20:42.264Z,11.87
2017-09-19T07:21:54.191Z,11.97
2017-09-19T07:23:04.328Z,11.96
2017-09-19T07:24:14.189Z,11.95
2017-09-19T07:25:24.254Z,12.04
2017-09-19T07:26:35.381Z,12.04
2017-09-19T07:27:45.201Z,12.14
2017-09-19T07:28:57.342Z,12.21
2017-09-19T07:30:07.181Z,12.39
2017-09-19T07:31:17.193Z,12.39
2017-09-19T07:32:27.306Z,12.37
2017-09-19T07:33:37.281Z,12.41
2017-09-19T07:34:49.295Z,12.51
2017-09-19T07:35:59.237Z,12.29
2017-09-19T07:37:09.233Z,12.54
2017-09-19T07:38:19.241Z,12.83
2017-09-19T07:39:30.260Z,12.90
2017-09-19T07:40:40.247Z,13.10
2017-09-19T07:41:50.192Z,13.26
2017-09-19T07:43:00.394Z,13.48
2017-09-19T07:44:10.101Z,13.43
2017-09-19T07:45:20.361Z,13.62
2017-09-19T07:46:30.186Z,13.69
2017-09-19T07:47:40.279Z,13.90
2017-09-19T07:48:51.291Z,13.34
2017-09-19T07:50:02.247Z,13.00
2017-09-19T07:51:14.209Z,13.14
2017-09-19T07:52:23.664Z,13.39
2017-09-19T07:53:33.187Z,13.73
2017-09-19T07:54:43.271Z,13.79
2017-09-19T07:55:54.260Z,13.47
2017-09-19T07:57:04.455Z,13.61
2017-09-19T07:58:14.173Z,14.03
2017-09-19T07:59:23.916Z,14.30
2017-09-19T08:00:35.241Z,14.33
2017-09-19T08:01:45.126Z,14.33
2017-09-19T08:02:55.136Z,14.09
2017-09-19T08:04:05.006Z,14.08
2017-09-19T08:05:15.123Z,14.23
2017-09-19T08:06:25.221Z,14.36
2017-09-19T08:07:35.020Z,14.56
2017-09-19T08:08:46.194Z,14.70
2017-09-19T08:09:56.191Z,14.82
2017-09-19T08:11:06.330Z,14.75
2017-09-19T08:12:16.191Z,14.48
2017-09-19T08:13:26.165Z,14.48
2017-09-19T08:14:36.077Z,14.69
2017-09-19T08:15:46.151Z,14.70
2017-09-19T08:16:56.103Z,14.83
2017-09-19T08:18:07.132Z,14.74
2017-09-19T08:19:20.176Z,14.67
2017-09-19T08:20:30.231Z,14.60
2017-09-19T08:21:40.098Z,14.63
2017-09-19T08:22:51.118Z,14.45
2017-09-19T08:24:01.519Z,14.54
2017-09-19T08:25:10.919Z,14.57
2017-09-19T08:26:21.157Z,14.78
2017-09-19T08:27:31.023Z,14.76
2017-09-19T08:28:39.955Z,14.31
2017-09-19T08:29:49.063Z,14.21
2017-09-19T08:30:59.075Z,14.31
2017-09-19T08:32:10.088Z,14.17
2017-09-19T08:33:20.139Z,14.27
2017-09-19T08:34:31.161Z,14.32
2017-09-19T08:35:42.140Z,14.46
2017-09-19T08:36:52.130Z,14.68
2017-09-19T08:38:02.956Z,14.80
2017-09-19T08:39:13.063Z,14.92
2017-09-19T08:40:22.128Z,14.94
2017-09-19T08:41:31.144Z,14.98
2017-09-19T08:42:40.392Z,15.06
2017-09-19T08:43:49.998Z,14.75
2017-09-19T08:45:00.080Z,14.51
2017-09-19T08:46:10.080Z,14.71
2017-09-19T08:47:20.095Z,14.79
2017-09-19T08:48:30.981Z,14.87
2017-09-19T08:49:42.155Z,15.08
2017-09-19T08:50:52.996Z,15.09
2017-09-19T08:52:02.982Z,15.12
2017-09-19T08:53:11.948Z,14.86
2017-09-19T08:54:22.082Z,15.00
2017-09-19T08:55:33.085Z,15.15
2017-09-19T08:56:43.067Z,14.95
2017-09-19T08:57:52.909Z,14.94
2017-09-19T08:59:03.022Z,14.67
2017-09-19T09:00:14.032Z,14.59
2017-09-19T09:01:24.086Z,14.74
2017-09-19T09:02:34.046Z,14.94
2017-09-19T09:03:44.057Z,15.16
2017-09-19T09:04:54.018Z,15.35
2017-09-19T09:06:04.042Z,15.17
2017-09-19T09:07:15.035Z,15.38
2017-09-19T09:08:25.059Z,15.54
2017-09-19T09:09:35.018Z,15.55
2017-09-19T09:10:45.988Z,15.51
2017-09-19T09:11:56.822Z,15.72
2017-09-19T09:13:07.910Z,15.85
2017-09-19T09:14:17.982Z,15.86
2017-09-19T09:15:28.089Z,15.83
2017-09-19T09:16:37.165Z,15.88
2017-09-19T09:17:46.232Z,16.03
2017-09-19T09:18:56.989Z,15.98
2017-09-19T09:20:08.063Z,16.03
2017-09-19T09:21:17.004Z,16.09
2017-09-19T09:22:27.112Z,15.55
2017-09-19T09:23:37.176Z,15.72
2017-09-19T09:24:48.017Z,15.76
2017-09-19T09:25:58.958Z,15.70
2017-09-19T09:27:08.956Z,15.69
2017-09-19T09:28:19.007Z,15.79
2017-09-19T09:29:28.932Z,15.97
2017-09-19T09:30:38.931Z,15.88
2017-09-19T09:31:48.998Z,16.01
2017-09-19T09:32:58.949Z,16.06
2017-09-19T09:34:09.072Z,16.14
2017-09-19T09:35:19.958Z,16.28
2017-09-19T09:36:29.900Z,16.42
2017-09-19T09:37:40.051Z,16.65
2017-09-19T09:38:48.900Z,16.63
2017-09-19T09:39:59.095Z,16.46
2017-09-19T09:41:09.972Z,16.57
2017-09-19T09:42:19.127Z,16.88
2017-09-19T09:43:29.814Z,16.94
2017-09-19T09:44:39.942Z,16.94
2017-09-19T09:45:50.927Z,16.78
2017-09-19T09:47:01.900Z,16.27
2017-09-19T09:48:11.902Z,16.09
2017-09-19T09:49:22.151Z,15.86
2017-09-19T09:50:32.958Z,15.67
2017-09-19T09:51:42.912Z,15.46
2017-09-19T09:52:53.004Z,15.22
2017-09-19T09:54:03.041Z,15.14
2017-09-19T09:55:13.865Z,15.03
2017-09-19T09:56:27.038Z,15.10
2017-09-19T09:57:36.883Z,15.02
2017-09-19T09:58:46.934Z,15.18
2017-09-19T09:59:57.172Z,15.18
2017-09-19T10:01:06.968Z,15.17
2017-09-19T10:02:17.955Z,15.30
2017-09-19T10:03:27.973Z,15.21
2017-09-19T10:04:38.000Z,15.08
2017-09-19T10:05:48.182Z,14.95
2017-09-19T10:06:59.036Z,14.93
2017-09-19T10:08:10.895Z,14.95
2017-09-19T10:09:20.865Z,14.97
2017-09-19T10:10:30.940Z,14.94
2017-09-19T10:11:41.920Z,15.07
2017-09-19T10:12:51.885Z,15.46
2017-09-19T10:14:02.880Z,15.92
2017-09-19T10:15:13.964Z,16.19
2017-09-19T10:16:24.994Z,16.45
2017-09-19T10:17:35.863Z,16.39
2017-09-19T10:18:47.845Z,16.45
2017-09-19T10:19:58.873Z,16.47
2017-09-19T10:21:08.921Z,16.84
2017-09-19T10:22:18.858Z,16.99
2017-09-19T10:23:28.742Z,17.16
2017-09-19T10:24:39.790Z,17.31
2017-09-19T10:25:49.899Z,17.06
2017-09-19T10:26:59.754Z,17.18
2017-09-19T10:28:09.779Z,17.29
2017-09-19T10:29:19.778Z,17.50
2017-09-19T10:30:29.863Z,17.37
2017-09-19T10:31:41.133Z,17.02
2017-09-19T10:32:51.781Z,17.12
2017-09-19T10:34:01.819Z,17.32
2017-09-19T10:35:11.785Z,17.25
2017-09-19T10:36:21.869Z,16.99
2017-09-19T10:37:31.799Z,16.85
2017-09-19T10:38:41.867Z,16.25
2017-09-19T10:39:52.136Z,16.08
2017-09-19T10:41:02.800Z,16.18
2017-09-19T10:42:13.787Z,16.20
2017-09-19T10:43:25.107Z,16.14
2017-09-19T10:44:34.877Z,15.86
2017-09-19T10:45:44.987Z,15.76
2017-09-19T10:46:54.750Z,15.82
2017-09-19T10:48:04.861Z,15.90
2017-09-19T10:49:15.751Z,16.07
2017-09-19T10:50:25.875Z,16.41
2017-09-19T10:51:36.024Z,16.53
2017-09-19T10:52:46.799Z,16.66
2017-09-19T10:53:56.946Z,16.93
2017-09-19T10:55:06.862Z,16.99
2017-09-19T10:56:17.688Z,17.13
2017-09-19T10:57:26.656Z,17.14
2017-09-19T10:58:35.846Z,17.17
2017-09-19T10:59:45.690Z,17.25
2017-09-19T11:00:56.710Z,17.29
2017-09-19T11:02:06.714Z,17.01
2017-09-19T11:03:16.770Z,17.12
2017-09-19T11:04:26.733Z,16.89
2017-09-19T11:05:36.777Z,16.77
2017-09-19T11:06:46.851Z,16.57
2017-09-19T11:07:57.875Z,16.41
2017-09-19T11:09:08.711Z,16.22
2017-09-19T11:10:19.717Z,16.15
2017-09-19T11:11:30.839Z,15.99
2017-09-19T11:12:41.707Z,16.01
2017-09-19T11:13:51.732Z,15.89
2017-09-19T11:15:01.654Z,15.95
2017-09-19T11:16:11.699Z,15.94
2017-09-19T11:17:21.799Z,15.81
2017-09-19T11:18:33.775Z,15.90
2017-09-19T11:19:44.771Z,15.91
2017-09-19T11:20:57.794Z,15.91
2017-09-19T11:22:07.699Z,16.03
2017-09-19T11:23:17.901Z,16.13
2017-09-19T11:24:29.749Z,16.28
2017-09-19T11:25:38.678Z,16.42
2017-09-19T11:26:49.646Z,16.51
2017-09-19T11:27:59.746Z,16.63
2017-09-19T11:29:09.715Z,16.67
2017-09-19T11:30:18.697Z,16.75
2017-09-19T11:31:28.818Z,16.85
2017-09-19T11:32:38.008Z,17.05
2017-09-19T11:33:47.712Z,17.61
2017-09-19T11:34:57.745Z,17.92
2017-09-19T11:36:07.715Z,18.24
2017-09-19T11:37:17.649Z,18.26
2017-09-19T11:38:28.698Z,18.57
2017-09-19T11:39:38.730Z,18.98
2017-09-19T11:40:48.709Z,18.83
2017-09-19T11:41:58.614Z,18.33
2017-09-19T11:43:10.767Z,17.73
2017-09-19T11:44:20.619Z,17.80
2017-09-19T11:45:30.908Z,18.00
2017-09-19T11:46:40.665Z,18.03
2017-09-19T11:47:50.673Z,17.94
2017-09-19T11:49:01.703Z,17.22
2017-09-19T11:50:11.707Z,17.34
2017-09-19T11:51:22.639Z,17.45
2017-09-19T11:52:32.638Z,17.36
2017-09-19T11:53:42.662Z,17.05
2017-09-19T11:54:52.711Z,16.85
2017-09-19T11:56:02.645Z,17.17
2017-09-19T11:57:11.640Z,17.30
2017-09-19T11:58:21.655Z,17.01
2017-09-19T11:59:32.671Z,16.81
2017-09-19T12:00:42.622Z,16.80
2017-09-19T12:01:53.743Z,16.68
2017-09-19T12:03:03.717Z,16.64
2017-09-19T12:04:13.649Z,16.80
2017-09-19T12:05:23.621Z,16.60
2017-09-19T12:06:33.580Z,16.61
2017-09-19T12:07:43.857Z,16.83
2017-09-19T12:08:53.638Z,16.49
2017-09-19T12:10:04.608Z,16.71
2017-09-19T12:11:14.621Z,16.88
2017-09-19T12:12:24.742Z,16.84
2017-09-19T12:13:34.604Z,16.95
2017-09-19T12:14:46.715Z,16.80
2017-09-19T12:15:56.653Z,16.70
2017-09-19T12:17:07.656Z,16.72
2017-09-19T12:18:17.710Z,16.67
2017-09-19T12:19:28.735Z,16.87
2017-09-19T12:20:40.715Z,17.01
2017-09-19T12:21:52.431Z,17.17
2017-09-19T12:23:03.585Z,17.46
2017-09-19T12:24:13.592Z,17.48
2017-09-19T12:25:24.592Z,16.97
2017-09-19T12:26:34.859Z,16.95
2017-09-19T12:27:44.691Z,16.52
2017-09-19T12:28:54.627Z,16.79
2017-09-19T12:30:05.612Z,16.95
2017-09-19T12:31:16.618Z,17.25
2017-09-19T12:32:26.554Z,17.38
2017-09-19T12:33:36.607Z,17.44
2017-09-19T12:34:46.648Z,17.45
2017-09-19T12:35:56.603Z,17.40
2017-09-19T12:37:07.546Z,17.27
2017-09-19T12:38:16.576Z,17.15
2017-09-19T12:39:26.492Z,17.19
2017-09-19T12:40:36.567Z,16.86
2017-09-19T12:41:49.515Z,16.77
2017-09-19T12:42:59.584Z,16.74
2017-09-19T12:44:10.596Z,17.02
2017-09-19T12:45:21.772Z,17.26
2017-09-19T12:46:31.846Z,17.24
2017-09-19T12:47:42.632Z,17.44
2017-09-19T12:48:53.657Z,17.52
2017-09-19T12:50:04.610Z,17.38
2017-09-19T12:51:16.530Z,17.19
2017-09-19T12:52:26.656Z,16.96
2017-09-19T12:53:37.578Z,17.16
2017-09-19T12:54:48.537Z,17.32
2017-09-19T12:55:58.682Z,17.15
2017-09-19T12:57:07.615Z,17.26
2017-09-19T12:58:18.475Z,17.42
2017-09-19T12:59:27.612Z,17.37
2017-09-19T13:00:37.451Z,17.55
2017-09-19T13:01:47.317Z,17.72
2017-09-19T13:02:56.487Z,17.73
2017-09-19T13:04:06.493Z,17.88
2017-09-19T13:05:16.626Z,17.95
2017-09-19T13:06:27.512Z,17.64
2017-09-19T13:07:37.404Z,17.68
2017-09-19T13:08:47.510Z,17.61
2017-09-19T13:09:58.453Z,17.68
2017-09-19T13:11:08.721Z,17.76
2017-09-19T13:12:19.480Z,17.36
2017-09-19T13:13:28.510Z,17.58
2017-09-19T13:14:39.588Z,17.55
2017-09-19T13:15:49.462Z,17.60
2017-09-19T13:16:59.443Z,17.81
2017-09-19T13:18:09.404Z,17.94
2017-09-19T13:19:19.462Z,18.01
2017-09-19T13:20:29.498Z,17.42
2017-09-19T13:21:37.559Z,17.44
2017-09-19T13:22:47.456Z,17.42
2017-09-19T13:23:58.581Z,17.37
2017-09-19T13:25:09.540Z,17.53
2017-09-19T13:26:19.623Z,17.41
2017-09-19T13:27:29.451Z,17.20
2017-09-19T13:28:38.661Z,17.06
2017-09-19T13:29:48.549Z,17.07
2017-09-19T13:31:09.572Z,16.89
2017-09-19T13:32:30.309Z,16.56
2017-09-19T13:33:47.575Z,16.63
2017-09-19T13:34:56.446Z,16.49
2017-09-19T13:36:06.525Z,16.60
2017-09-19T13:37:17.704Z,16.42
2017-09-19T13:38:28.463Z,16.53
2017-09-19T13:39:38.460Z,16.63
2017-09-19T13:40:48.450Z,16.71
2017-09-19T13:41:59.518Z,16.76
2017-09-19T13:43:09.495Z,16.64
2017-09-19T13:44:19.383Z,16.68
2017-09-19T13:45:29.395Z,16.64
2017-09-19T13:46:40.455Z,16.76
2017-09-19T13:47:50.382Z,17.02
2017-09-19T13:49:00.354Z,16.96
2017-09-19T13:50:11.450Z,16.94
2017-09-19T13:51:21.374Z,16.79
2017-09-19T13:52:32.579Z,16.86
2017-09-19T13:53:42.560Z,16.91
2017-09-19T13:54:53.506Z,16.82
2017-09-19T13:56:03.413Z,16.80
2017-09-19T13:57:12.445Z,16.70
2017-09-19T13:58:22.511Z,16.56
2017-09-19T13:59:33.438Z,16.49
2017-09-19T14:00:44.426Z,16.52
2017-09-19T14:01:55.439Z,16.46
2017-09-19T14:03:06.348Z,16.29
2017-09-19T14:04:16.193Z,16.42
2017-09-19T14:05:24.436Z,16.65
2017-09-19T14:06:37.443Z,16.76
2017-09-19T14:07:52.531Z,16.81
2017-09-19T14:09:06.324Z,16.77
2017-09-19T14:10:20.397Z,16.67
2017-09-19T14:11:34.318Z,16.65
2017-09-19T14:12:46.595Z,16.56
2017-09-19T14:13:58.582Z,16.59
2017-09-19T14:15:12.340Z,16.59
2017-09-19T14:16:25.152Z,16.67
2017-09-19T14:17:38.422Z,16.70
2017-09-19T14:18:50.273Z,16.67
2017-09-19T14:20:00.542Z,16.54
2017-09-19T14:21:11.067Z,16.68
2017-09-19T14:22:20.388Z,16.68
2017-09-19T14:23:31.161Z,16.60
2017-09-19T14:24:42.472Z,16.65
2017-09-19T14:25:53.382Z,16.65
2017-09-19T14:27:03.001Z,16.46
2017-09-19T14:28:13.127Z,16.42
2017-09-19T14:29:22.575Z,16.07
2017-09-19T14:30:32.220Z,16.12
2017-09-19T14:31:42.192Z,16.21
2017-09-19T14:32:53.297Z,16.44
2017-09-19T14:34:03.322Z,16.47
2017-09-19T14:35:15.360Z,16.45
2017-09-19T14:36:28.542Z,16.28
2017-09-19T14:37:43.316Z,16.31
2017-09-19T14:38:55.252Z,16.41
2017-09-19T14:40:07.528Z,16.43
2017-09-19T14:41:19.391Z,16.50
2017-09-19T14:42:33.313Z,16.68
2017-09-19T14:43:46.443Z,16.55
2017-09-19T14:45:00.364Z,16.48
2017-09-19T14:46:37.490Z,16.68
2017-09-19T14:49:43.289Z,16.67
2017-09-19T14:50:58.377Z,16.74
2017-09-19T14:52:13.313Z,16.69
2017-09-19T14:53:24.024Z,16.63
2017-09-19T14:54:34.345Z,16.65
2017-09-19T14:55:43.287Z,16.63
2017-09-19T14:56:53.219Z,16.60
2017-09-19T14:58:06.500Z,16.56
2017-09-19T14:59:20.283Z,16.66
2017-09-19T15:00:34.338Z,16.75
2017-09-19T15:01:47.303Z,16.75
2017-09-19T15:03:00.255Z,16.71
2017-09-19T15:04:11.201Z,16.60
2017-09-19T15:05:22.237Z,16.55
2017-09-19T15:06:32.245Z,16.32